
Distance (Route):
Temperature : -2.3°C
Humidity : 83.6%
Pressure : 0hPa| Receiver | Frames | First received | Last received |
|---|---|---|---|
| KE7DJD | 205 | 2026-09-01 23:06:20 | 2026-09-02 02:19:53 |
| Receiver | Date | Latitude | Longitude | Direction | Speed | Altitude | Climb | Temperature | Humidity | Pressure | Voltage | Killtimer | Uptime | BKT | XDATA |
|---|---|---|---|---|---|---|---|---|---|---|---|---|---|---|---|
| KE7DJD | 2026-09-02 02:19:53 | 44.47314 | -115.32270 | 21° | 68km/h | 4237m | -4.1m/s | -2.3°C | 83.6% | 0hPa | 0V | 07:00:00 | 00:00:00 | 00:00:00 | |
| KE7DJD | 2026-09-02 02:19:32 | 44.47009 | -115.32407 | 28° | 57km/h | 4318m | -3.8m/s | -2.8°C | 84.5% | 0hPa | 0V | 07:00:00 | 00:00:00 | 00:00:00 | |
| KE7DJD | 2026-09-02 02:19:11 | 44.46692 | -115.32568 | 16° | 64km/h | 4398m | -4.3m/s | -3.5°C | 87.2% | 0hPa | 0V | 07:01:00 | 00:00:00 | 00:00:00 | |
| KE7DJD | 2026-09-02 02:18:25 | 44.46099 | -115.32841 | 28° | 60km/h | 4585m | -3.6m/s | -4.5°C | 88.0% | 0hPa | 0V | 07:02:00 | 00:00:00 | 00:00:00 | |
| KE7DJD | 2026-09-02 02:18:04 | 44.45822 | -115.32973 | 21° | 51km/h | 4671m | -3.3m/s | -4.9°C | 90.8% | 0hPa | 0V | 07:02:00 | 00:00:00 | 00:00:00 | |
| KE7DJD | 2026-09-02 02:17:43 | 44.45586 | -115.33161 | 26° | 55km/h | 4740m | -3.2m/s | -5.3°C | 89.3% | 0hPa | 0V | 07:02:00 | 00:00:00 | 00:00:00 | |
| KE7DJD | 2026-09-02 02:17:22 | 44.45357 | -115.33341 | 28° | 57km/h | 4810m | -3.2m/s | -5.6°C | 89.4% | 0hPa | 0V | 07:02:00 | 00:00:00 | 00:00:00 | |
| KE7DJD | 2026-09-02 02:17:01 | 44.45134 | -115.33539 | 35° | 58km/h | 4880m | -3.0m/s | -5.9°C | 90.0% | 0hPa | 0V | 07:02:00 | 00:00:00 | 00:00:00 | |
| KE7DJD | 2026-09-02 02:16:40 | 44.44915 | -115.33745 | 46° | 51km/h | 4947m | -3.5m/s | -6.2°C | 89.7% | 0hPa | 0V | 07:03:00 | 00:00:00 | 00:00:00 | |
| KE7DJD | 2026-09-02 02:16:20 | 44.44716 | -115.33956 | 48° | 44km/h | 5008m | -3.1m/s | -6.5°C | 89.5% | 0hPa | 0V | 07:03:00 | 00:00:00 | 00:00:00 | |
| KE7DJD | 2026-09-02 02:15:59 | 44.44501 | -115.34189 | 41° | 44km/h | 5080m | -3.8m/s | -7.0°C | 88.9% | 0hPa | 0V | 07:04:00 | 00:00:00 | 00:00:00 | |
| KE7DJD | 2026-09-02 02:15:39 | 44.44297 | -115.34421 | 34° | 47km/h | 5154m | -3.8m/s | -7.4°C | 89.0% | 0hPa | 0V | 07:04:00 | 00:00:00 | 00:00:00 | |
| KE7DJD | 2026-09-02 02:15:19 | 44.44111 | -115.34637 | 39° | 57km/h | 5223m | -3.7m/s | -7.8°C | 88.6% | 0hPa | 0V | 07:04:00 | 00:00:00 | 00:00:00 | |
| KE7DJD | 2026-09-02 02:14:58 | 44.43908 | -115.34849 | 50° | 51km/h | 5294m | -3.0m/s | -8.3°C | 90.3% | 0hPa | 0V | 07:05:00 | 00:00:00 | 00:00:00 | |
| KE7DJD | 2026-09-02 02:14:38 | 44.43713 | -115.35071 | 47° | 44km/h | 5364m | -2.7m/s | -8.7°C | 90.3% | 0hPa | 0V | 07:05:00 | 00:00:00 | 00:00:00 | |
| KE7DJD | 2026-09-02 02:14:17 | 44.43509 | -115.35336 | 46° | 46km/h | 5441m | -3.5m/s | -9.2°C | 89.5% | 0hPa | 0V | 07:06:00 | 00:00:00 | 00:00:00 | |
| KE7DJD | 2026-09-02 02:13:57 | 44.43316 | -115.35608 | 44° | 46km/h | 5518m | -3.6m/s | -9.7°C | 88.0% | 0hPa | 0V | 07:06:00 | 00:00:00 | 00:00:00 | |
| KE7DJD | 2026-09-02 02:13:37 | 44.43127 | -115.35889 | 41° | 47km/h | 5588m | -3.1m/s | -10.1°C | 88.0% | 0hPa | 0V | 07:06:00 | 00:00:00 | 00:00:00 | |
| KE7DJD | 2026-09-02 02:13:17 | 44.42943 | -115.36168 | 39° | 57km/h | 5651m | -3.7m/s | -10.5°C | 88.4% | 0hPa | 0V | 07:07:00 | 00:00:00 | 00:00:00 | |
| KE7DJD | 2026-09-02 02:12:56 | 44.42742 | -115.36449 | 41° | 62km/h | 5723m | -3.2m/s | -10.9°C | 87.8% | 0hPa | 0V | 07:07:00 | 00:00:00 | 00:00:00 | |
| KE7DJD | 2026-09-02 02:12:35 | 44.42539 | -115.36716 | 39° | 58km/h | 5789m | -2.9m/s | -11.3°C | 87.9% | 0hPa | 0V | 07:08:00 | 00:00:00 | 00:00:00 | |
| KE7DJD | 2026-09-02 02:12:14 | 44.42347 | -115.36980 | 47° | 60km/h | 5853m | -3.6m/s | -11.7°C | 88.9% | 0hPa | 0V | 07:08:00 | 00:00:00 | 00:00:00 | |
| KE7DJD | 2026-09-02 02:11:53 | 44.42140 | -115.37242 | 54° | 57km/h | 5921m | -3.7m/s | -12.1°C | 87.6% | 0hPa | 0V | 07:08:00 | 00:00:00 | 00:00:00 | |
| KE7DJD | 2026-09-02 02:11:32 | 44.41933 | -115.37531 | 55° | 53km/h | 5990m | -3.2m/s | -12.6°C | 87.2% | 0hPa | 0V | 07:08:00 | 00:00:00 | 00:00:00 | |
| KE7DJD | 2026-09-02 02:11:12 | 44.41732 | -115.37796 | 47° | 44km/h | 6054m | -3.5m/s | -13.0°C | 87.7% | 0hPa | 0V | 07:08:00 | 00:00:00 | 00:00:00 | |
| KE7DJD | 2026-09-02 02:10:51 | 44.41534 | -115.38062 | 52° | 49km/h | 6114m | -2.9m/s | -13.3°C | 86.9% | 0hPa | 0V | 07:09:00 | 00:00:00 | 00:00:00 | |
| KE7DJD | 2026-09-02 02:10:30 | 44.41325 | -115.38330 | 45° | 42km/h | 6161m | -2.2m/s | -13.6°C | 87.5% | 0hPa | 0V | 07:09:00 | 00:00:00 | 00:00:00 | |
| KE7DJD | 2026-09-02 02:10:09 | 44.41130 | -115.38578 | 51° | 42km/h | 6203m | -2.4m/s | -13.8°C | 87.1% | 0hPa | 0V | 07:09:00 | 00:00:00 | 00:00:00 | |
| KE7DJD | 2026-09-02 02:09:49 | 44.40947 | -115.38850 | 49° | 44km/h | 6239m | -2.3m/s | -14.0°C | 88.2% | 0hPa | 0V | 07:10:00 | 00:00:00 | 00:00:00 | |
| KE7DJD | 2026-09-02 02:09:28 | 44.40745 | -115.39152 | 36° | 57km/h | 6284m | -2.3m/s | -14.3°C | 89.0% | 0hPa | 0V | 07:10:00 | 00:00:00 | 00:00:00 | |
| KE7DJD | 2026-09-02 02:09:08 | 44.40548 | -115.39390 | 35° | 57km/h | 6325m | -2.0m/s | -14.5°C | 88.0% | 0hPa | 0V | 07:11:00 | 00:00:00 | 00:00:00 | |
| KE7DJD | 2026-09-02 02:08:48 | 44.40343 | -115.39638 | 38° | 62km/h | 6368m | -2.6m/s | -14.8°C | 89.4% | 0hPa | 0V | 07:11:00 | 00:00:00 | 00:00:00 | |
| KE7DJD | 2026-09-02 02:08:27 | 44.40149 | -115.39878 | 55° | 51km/h | 6427m | -3.9m/s | -15.1°C | 89.0% | 0hPa | 0V | 07:11:00 | 00:00:00 | 00:00:00 | |
| KE7DJD | 2026-09-02 02:08:06 | 44.39994 | -115.40153 | 64° | 53km/h | 6508m | -3.7m/s | -15.2°C | 85.1% | 0hPa | 0V | 07:12:00 | 00:00:00 | 00:00:00 | |
| KE7DJD | 2026-09-02 02:07:45 | 44.39851 | -115.40410 | 60° | 49km/h | 6575m | -2.7m/s | -15.7°C | 85.1% | 0hPa | 0V | 07:12:00 | 00:00:00 | 00:00:00 | |
| KE7DJD | 2026-09-02 02:07:24 | 44.39697 | -115.40653 | 50° | 49km/h | 6629m | -3.1m/s | -16.2°C | 87.9% | 0hPa | 0V | 07:13:00 | 00:00:00 | 00:00:00 | |
| KE7DJD | 2026-09-02 02:07:04 | 44.39551 | -115.40850 | 51° | 47km/h | 6694m | -3.0m/s | -16.5°C | 84.8% | 0hPa | 0V | 07:13:00 | 00:00:00 | 00:00:00 | |
| KE7DJD | 2026-09-02 02:06:44 | 44.39403 | -115.41001 | 51° | 29km/h | 6753m | -3.1m/s | -16.9°C | 84.2% | 0hPa | 0V | 07:13:00 | 00:00:00 | 00:00:00 | |
| KE7DJD | 2026-09-02 02:06:23 | 44.39259 | -115.41192 | 39° | 26km/h | 6818m | -3.1m/s | -17.2°C | 83.5% | 0hPa | 0V | 07:13:00 | 00:00:00 | 00:00:00 | |
| KE7DJD | 2026-09-02 02:06:02 | 44.39138 | -115.41364 | 44° | 22km/h | 6888m | -3.6m/s | -17.7°C | 82.8% | 0hPa | 0V | 07:13:00 | 00:00:00 | 00:00:00 | |
| KE7DJD | 2026-09-02 02:05:41 | 44.39038 | -115.41525 | 35° | 26km/h | 6959m | -3.7m/s | -18.2°C | 82.9% | 0hPa | 0V | 07:14:00 | 00:00:00 | 00:00:00 | |
| KE7DJD | 2026-09-02 02:05:20 | 44.38928 | -115.41693 | 42° | 38km/h | 7018m | -2.1m/s | -18.7°C | 81.8% | 0hPa | 0V | 07:14:00 | 00:00:00 | 00:00:00 | |
| KE7DJD | 2026-09-02 02:05:00 | 44.38806 | -115.41873 | 65° | 38km/h | 7067m | -3.3m/s | -18.9°C | 80.9% | 0hPa | 0V | 07:15:00 | 00:00:00 | 00:00:00 | |
| KE7DJD | 2026-09-02 02:04:39 | 44.38693 | -115.42084 | 68° | 40km/h | 7129m | -3.5m/s | -19.5°C | 81.7% | 0hPa | 0V | 07:15:00 | 00:00:00 | 00:00:00 | |
| KE7DJD | 2026-09-02 02:04:19 | 44.38590 | -115.42290 | 74° | 29km/h | 7201m | -3.4m/s | -20.0°C | 82.2% | 0hPa | 0V | 07:15:00 | 00:00:00 | 00:00:00 | |
| KE7DJD | 2026-09-02 02:03:59 | 44.38506 | -115.42522 | 50° | 33km/h | 7253m | -2.3m/s | -20.2°C | 80.7% | 0hPa | 0V | 07:16:00 | 00:00:00 | 00:00:00 | |
| KE7DJD | 2026-09-02 02:03:38 | 44.38441 | -115.42731 | 63° | 38km/h | 7329m | -3.8m/s | -20.8°C | 79.9% | 0hPa | 0V | 07:16:00 | 00:00:00 | 00:00:00 | |
| KE7DJD | 2026-09-02 02:03:18 | 44.38371 | -115.42913 | 68° | 35km/h | 7401m | -2.6m/s | -21.3°C | 81.2% | 0hPa | 0V | 07:17:00 | 00:00:00 | 00:00:00 | |
| KE7DJD | 2026-09-02 02:02:57 | 44.38286 | -115.43094 | 77° | 29km/h | 7470m | -3.0m/s | -21.8°C | 81.3% | 0hPa | 0V | 07:17:00 | 00:00:00 | 00:00:00 | |
| KE7DJD | 2026-09-02 02:02:37 | 44.38215 | -115.43272 | 80° | 29km/h | 7525m | -2.3m/s | -22.2°C | 80.2% | 0hPa | 0V | 07:17:00 | 00:00:00 | 00:00:00 | |
| KE7DJD | 2026-09-02 02:02:16 | 44.38140 | -115.43459 | 82° | 31km/h | 7581m | -2.8m/s | -22.6°C | 79.4% | 0hPa | 0V | 07:18:00 | 00:00:00 | 00:00:00 | |
| KE7DJD | 2026-09-02 02:01:57 | 44.38068 | -115.43619 | 78° | 24km/h | 7641m | -4.1m/s | -23.1°C | 79.5% | 0hPa | 0V | 07:18:00 | 00:00:00 | 00:00:00 | |
| KE7DJD | 2026-09-02 02:01:35 | 44.37985 | -115.43780 | 69° | 18km/h | 7716m | -3.0m/s | -23.7°C | 78.4% | 0hPa | 0V | 07:19:00 | 00:00:00 | 00:00:00 | |
| KE7DJD | 2026-09-02 02:01:14 | 44.37908 | -115.43946 | 43° | 18km/h | 7781m | -3.1m/s | -24.1°C | 79.1% | 0hPa | 0V | 07:19:00 | 00:00:00 | 00:00:00 | |
| KE7DJD | 2026-09-02 02:00:53 | 44.37842 | -115.44089 | 35° | 22km/h | 7846m | -3.3m/s | -24.7°C | 77.8% | 0hPa | 0V | 07:19:00 | 00:00:00 | 00:00:00 | |
| KE7DJD | 2026-09-02 02:00:32 | 44.37779 | -115.44239 | 37° | 29km/h | 7902m | -2.5m/s | -25.1°C | 78.4% | 0hPa | 0V | 07:19:00 | 00:00:00 | 00:00:00 | |
| KE7DJD | 2026-09-02 02:00:11 | 44.37708 | -115.44388 | 48° | 31km/h | 7950m | -2.4m/s | -25.5°C | 77.9% | 0hPa | 0V | 07:19:00 | 00:00:00 | 00:00:00 | |
| KE7DJD | 2026-09-02 01:59:51 | 44.37643 | -115.44534 | 67° | 27km/h | 7992m | -1.2m/s | -25.9°C | 79.5% | 0hPa | 0V | 07:20:00 | 00:00:00 | 00:00:00 | |
| KE7DJD | 2026-09-02 01:59:30 | 44.37596 | -115.44667 | 61° | 29km/h | 8027m | -1.4m/s | -26.1°C | 78.3% | 0hPa | 0V | 07:20:00 | 00:00:00 | 00:00:00 | |
| KE7DJD | 2026-09-02 01:59:10 | 44.37551 | -115.44803 | 72° | 29km/h | 8063m | -1.0m/s | -26.4°C | 78.6% | 0hPa | 0V | 07:20:00 | 00:00:00 | 00:00:00 | |
| KE7DJD | 2026-09-02 01:58:50 | 44.37501 | -115.44947 | 77° | 29km/h | 8082m | -1.3m/s | -26.5°C | 78.8% | 0hPa | 0V | 07:21:00 | 00:00:00 | 00:00:00 | |
| KE7DJD | 2026-09-02 01:58:29 | 44.37442 | -115.45105 | 71° | 33km/h | 8099m | -0.7m/s | -26.6°C | 78.5% | 0hPa | 0V | 07:21:00 | 00:00:00 | 00:00:00 | |
| KE7DJD | 2026-09-02 01:58:09 | 44.37377 | -115.45265 | 67° | 35km/h | 8119m | -1.1m/s | -26.8°C | 79.0% | 0hPa | 0V | 07:22:00 | 00:00:00 | 00:00:00 | |
| KE7DJD | 2026-09-02 01:57:48 | 44.37303 | -115.45431 | 52° | 35km/h | 8134m | -0.4m/s | -26.9°C | 78.6% | 0hPa | 0V | 07:22:00 | 00:00:00 | 00:00:00 | |
| KE7DJD | 2026-09-02 01:57:27 | 44.37232 | -115.45590 | 57° | 35km/h | 8142m | -0.3m/s | -27.0°C | 79.4% | 0hPa | 0V | 07:22:00 | 00:00:00 | 00:00:00 | |
| KE7DJD | 2026-09-02 01:57:07 | 44.37170 | -115.45749 | 59° | 37km/h | 8155m | -1.1m/s | -27.1°C | 78.3% | 0hPa | 0V | 07:23:00 | 00:00:00 | 00:00:00 | |
| KE7DJD | 2026-09-02 01:56:46 | 44.37103 | -115.45925 | 57° | 37km/h | 8169m | -0.5m/s | -27.1°C | 78.4% | 0hPa | 0V | 07:23:00 | 00:00:00 | 00:00:00 | |
| KE7DJD | 2026-09-02 01:56:25 | 44.37035 | -115.46107 | 49° | 35km/h | 8183m | -0.3m/s | -27.3°C | 79.2% | 0hPa | 0V | 07:24:00 | 00:00:00 | 00:00:00 | |
| KE7DJD | 2026-09-02 01:56:04 | 44.36962 | -115.46291 | 46° | 27km/h | 8184m | 0.1m/s | -27.3°C | 79.7% | 0hPa | 0V | 07:24:00 | 00:00:00 | 00:00:00 | |
| KE7DJD | 2026-09-02 01:55:43 | 44.36899 | -115.46473 | 50° | 24km/h | 8174m | 0.7m/s | -27.3°C | 80.7% | 0hPa | 0V | 07:24:00 | 00:00:00 | 00:00:00 | |
| KE7DJD | 2026-09-02 01:55:22 | 44.36836 | -115.46681 | 50° | 33km/h | 8159m | 0.9m/s | -27.1°C | 81.7% | 0hPa | 0V | 07:25:00 | 00:00:00 | 00:00:00 | |
| KE7DJD | 2026-09-02 01:55:02 | 44.36781 | -115.46851 | 58° | 29km/h | 8133m | 1.1m/s | -26.9°C | 82.8% | 0hPa | 0V | 07:25:00 | 00:00:00 | 00:00:00 | |
| KE7DJD | 2026-09-02 01:54:42 | 44.36755 | -115.46993 | 71° | 27km/h | 8126m | 0.7m/s | -26.9°C | 80.3% | 0hPa | 0V | 07:25:00 | 00:00:00 | 00:00:00 | |
| KE7DJD | 2026-09-02 01:54:21 | 44.36710 | -115.47129 | 69° | 26km/h | 8109m | 1.6m/s | -26.7°C | 81.0% | 0hPa | 0V | 07:25:00 | 00:00:00 | 00:00:00 | |
| KE7DJD | 2026-09-02 01:54:01 | 44.36666 | -115.47215 | 99° | 11km/h | 8080m | 1.0m/s | -26.4°C | 82.9% | 0hPa | 0V | 07:25:00 | 00:00:00 | 00:00:00 | |
| KE7DJD | 2026-09-02 01:53:41 | 44.36631 | -115.47315 | 94° | 15km/h | 8048m | 1.9m/s | -26.3°C | 81.6% | 0hPa | 0V | 07:26:00 | 00:00:00 | 00:00:00 | |
| KE7DJD | 2026-09-02 01:53:19 | 44.36573 | -115.47446 | 18° | 15km/h | 8017m | 1.9m/s | -26.1°C | 82.3% | 0hPa | 0V | 07:26:00 | 00:00:00 | 00:00:00 | |
| KE7DJD | 2026-09-02 01:52:59 | 44.36523 | -115.47528 | 4° | 13km/h | 7992m | 1.1m/s | -25.9°C | 80.5% | 0hPa | 0V | 07:27:00 | 00:00:00 | 00:00:00 | |
| KE7DJD | 2026-09-02 01:52:38 | 44.36462 | -115.47600 | 3° | 13km/h | 7969m | 1.5m/s | -25.7°C | 80.7% | 0hPa | 0V | 07:27:00 | 00:00:00 | 00:00:00 | |
| KE7DJD | 2026-09-02 01:52:17 | 44.36431 | -115.47668 | 34° | 20km/h | 7964m | 0.0m/s | -25.7°C | 79.9% | 0hPa | 0V | 07:28:00 | 00:00:00 | 00:00:00 | |
| KE7DJD | 2026-09-02 01:51:57 | 44.36380 | -115.47745 | 57° | 24km/h | 7980m | -1.8m/s | -25.6°C | 80.6% | 0hPa | 0V | 07:28:00 | 00:00:00 | 00:00:00 | |
| KE7DJD | 2026-09-02 01:51:36 | 44.36284 | -115.47886 | 48° | 22km/h | 7990m | 0.4m/s | -25.9°C | 85.4% | 0hPa | 0V | 07:28:00 | 00:00:00 | 00:00:00 | |
| KE7DJD | 2026-09-02 01:51:15 | 44.36196 | -115.48030 | 66° | 20km/h | 7975m | 1.0m/s | -25.6°C | 83.8% | 0hPa | 0V | 07:29:00 | 00:00:00 | 00:00:00 | |
| KE7DJD | 2026-09-02 01:50:54 | 44.36066 | -115.48167 | 12° | 20km/h | 7974m | 0.6m/s | -25.6°C | 83.5% | 0hPa | 0V | 07:29:00 | 00:00:00 | 00:00:00 | |
| KE7DJD | 2026-09-02 01:50:34 | 44.35974 | -115.48291 | 42° | 38km/h | 7984m | -0.4m/s | -25.7°C | 80.9% | 0hPa | 0V | 07:30:00 | 00:00:00 | 00:00:00 | |
| KE7DJD | 2026-09-02 01:50:13 | 44.35838 | -115.48438 | 33° | 44km/h | 7977m | 0.7m/s | -25.5°C | 81.8% | 0hPa | 0V | 07:30:00 | 00:00:00 | 00:00:00 | |
| KE7DJD | 2026-09-02 01:49:53 | 44.35711 | -115.48567 | 40° | 44km/h | 7974m | 1.1m/s | -25.6°C | 82.0% | 0hPa | 0V | 07:30:00 | 00:00:00 | 00:00:00 | |
| KE7DJD | 2026-09-02 01:49:32 | 44.35579 | -115.48690 | 13° | 26km/h | 7963m | 0.0m/s | -25.7°C | 79.4% | 0hPa | 0V | 07:30:00 | 00:00:00 | 00:00:00 | |
| KE7DJD | 2026-09-01 23:47:43 | 43.90047 | -115.95359 | 51° | 75km/h | 13910m | 4.5m/s | -53.2°C | 2.2% | 0hPa | 0V | 00:00:00 | 00:00:00 | 00:00:00 | |
| KE7DJD | 2026-09-01 23:47:22 | 43.89750 | -115.95779 | 43° | 93km/h | 13810m | 4.4m/s | -53.0°C | 2.3% | 0hPa | 0V | 00:00:00 | 00:00:00 | 00:00:00 | |
| KE7DJD | 2026-09-01 23:47:02 | 43.89410 | -115.96188 | 42° | 91km/h | 13715m | 3.8m/s | -53.1°C | 2.5% | 0hPa | 0V | 00:00:00 | 00:00:00 | 00:00:00 | |
| KE7DJD | 2026-09-01 23:46:42 | 43.89026 | -115.96629 | 40° | 95km/h | 13619m | 5.2m/s | -54.0°C | 2.8% | 0hPa | 0V | 00:00:00 | 00:00:00 | 00:00:00 | |
| KE7DJD | 2026-09-01 23:46:21 | 43.88567 | -115.97073 | 35° | 102km/h | 13514m | 5.9m/s | -53.9°C | 3.1% | 0hPa | 0V | 00:00:00 | 00:00:00 | 00:00:00 | |
| KE7DJD | 2026-09-01 23:46:01 | 43.88131 | -115.97478 | 40° | 106km/h | 13415m | 5.4m/s | -54.0°C | 3.4% | 0hPa | 0V | 00:00:00 | 00:00:00 | 00:00:00 | |
| KE7DJD | 2026-09-01 23:45:40 | 43.87738 | -115.97917 | 41° | 97km/h | 13315m | 5.2m/s | -54.4°C | 3.8% | 0hPa | 0V | 00:00:00 | 00:00:00 | 00:00:00 | |
| KE7DJD | 2026-09-01 23:45:20 | 43.87364 | -115.98315 | 38° | 100km/h | 13224m | 3.9m/s | -54.3°C | 4.2% | 0hPa | 0V | 00:00:00 | 00:00:00 | 00:00:00 | |
| KE7DJD | 2026-09-01 23:44:59 | 43.86930 | -115.98696 | 35° | 95km/h | 13140m | 3.1m/s | -54.2°C | 4.8% | 0hPa | 0V | 00:00:00 | 00:00:00 | 00:00:00 | |
| KE7DJD | 2026-09-01 23:44:38 | 43.86508 | -115.99049 | 29° | 97km/h | 13062m | 2.2m/s | -53.7°C | 5.3% | 0hPa | 0V | 00:00:00 | 00:00:00 | 00:00:00 | |
| KE7DJD | 2026-09-01 23:43:56 | 43.85728 | -115.99743 | 37° | 88km/h | 12918m | 2.0m/s | -56.6°C | 10.6% | 0hPa | 0V | 00:00:00 | 00:00:00 | 00:00:00 | |
| KE7DJD | 2026-09-01 23:43:36 | 43.85327 | -116.00084 | 32° | 84km/h | 12842m | 4.1m/s | -57.1°C | 12.0% | 0hPa | 0V | 00:00:00 | 00:00:00 | 00:00:00 | |
| KE7DJD | 2026-09-01 23:43:14 | 43.84924 | -116.00420 | 31° | 86km/h | 12759m | 5.1m/s | -56.8°C | 12.6% | 0hPa | 0V | 00:00:00 | 00:00:00 | 00:00:00 | |
| KE7DJD | 2026-09-01 23:42:55 | 43.84532 | -116.00712 | 26° | 89km/h | 12669m | 5.1m/s | -56.7°C | 12.6% | 0hPa | 0V | 00:00:00 | 00:00:00 | 00:00:00 | |
| KE7DJD | 2026-09-01 23:42:33 | 43.84106 | -116.00973 | 25° | 84km/h | 12570m | 5.3m/s | -56.4°C | 12.6% | 0hPa | 0V | 00:00:00 | 00:00:00 | 00:00:00 | |
| KE7DJD | 2026-09-01 23:42:14 | 43.83741 | -116.01201 | 25° | 73km/h | 12467m | 6.5m/s | -55.6°C | 12.3% | 0hPa | 0V | 00:00:00 | 00:00:00 | 00:00:00 | |
| KE7DJD | 2026-09-01 23:41:54 | 43.83381 | -116.01426 | 29° | 82km/h | 12369m | 3.9m/s | -55.3°C | 12.3% | 0hPa | 0V | 00:00:00 | 00:00:00 | 00:00:00 | |
| KE7DJD | 2026-09-01 23:41:34 | 43.83039 | -116.01656 | 29° | 77km/h | 12269m | 6.1m/s | -54.8°C | 13.8% | 0hPa | 0V | 00:00:00 | 00:00:00 | 00:00:00 | |
| KE7DJD | 2026-09-01 23:41:13 | 43.82705 | -116.01897 | 30° | 73km/h | 12165m | 5.7m/s | -54.6°C | 16.1% | 0hPa | 0V | 00:00:00 | 00:00:00 | 00:00:00 | |
| KE7DJD | 2026-09-01 23:40:53 | 43.82356 | -116.02181 | 33° | 82km/h | 12059m | 4.0m/s | -54.5°C | 21.9% | 0hPa | 0V | 00:00:00 | 00:00:00 | 00:00:00 | |
| KE7DJD | 2026-09-01 23:40:33 | 43.82029 | -116.02448 | 30° | 80km/h | 11963m | 5.5m/s | -56.2°C | 34.1% | 0hPa | 0V | 00:00:00 | 00:00:00 | 00:00:00 | |
| KE7DJD | 2026-09-01 23:40:12 | 43.81689 | -116.02714 | 45° | 78km/h | 11855m | 7.1m/s | -56.5°C | 38.2% | 0hPa | 0V | 00:00:00 | 00:00:00 | 00:00:00 | |
| KE7DJD | 2026-09-01 23:39:50 | 43.81358 | -116.02989 | 29° | 77km/h | 11729m | 5.4m/s | -55.3°C | 33.7% | 0hPa | 0V | 00:00:00 | 00:00:00 | 00:00:00 | |
| KE7DJD | 2026-09-01 23:39:31 | 43.81048 | -116.03250 | 23° | 75km/h | 11632m | 4.1m/s | -54.4°C | 28.7% | 0hPa | 0V | 00:00:00 | 00:00:00 | 00:00:00 | |
| KE7DJD | 2026-09-01 23:39:10 | 43.80701 | -116.03544 | 23° | 64km/h | 11522m | 6.0m/s | -53.8°C | 23.0% | 0hPa | 0V | 00:00:00 | 00:00:00 | 00:00:00 | |
| KE7DJD | 2026-09-01 23:38:49 | 43.80385 | -116.03969 | 44° | 88km/h | 11391m | 5.1m/s | -53.2°C | 20.2% | 0hPa | 0V | 00:00:00 | 00:00:00 | 00:00:00 | |
| KE7DJD | 2026-09-01 23:38:27 | 43.80056 | -116.04416 | 43° | 82km/h | 11292m | 6.3m/s | -53.0°C | 21.4% | 0hPa | 0V | 00:00:00 | 00:00:00 | 00:00:00 | |
| KE7DJD | 2026-09-01 23:38:07 | 43.79734 | -116.04883 | 52° | 80km/h | 11187m | 7.8m/s | -52.6°C | 27.6% | 0hPa | 0V | 00:00:00 | 00:00:00 | 00:00:00 | |
| KE7DJD | 2026-09-01 23:37:46 | 43.79432 | -116.05327 | 62° | 97km/h | 11066m | 6.1m/s | -52.6°C | 41.4% | 0hPa | 0V | 00:00:00 | 00:00:00 | 00:00:00 | |
| KE7DJD | 2026-09-01 23:37:27 | 43.79129 | -116.05865 | 48° | 97km/h | 10947m | 4.5m/s | -51.8°C | 45.2% | 0hPa | 0V | 00:00:00 | 00:00:00 | 00:00:00 | |
| KE7DJD | 2026-09-01 23:37:06 | 43.78807 | -116.06394 | 48° | 93km/h | 10846m | 3.8m/s | -51.0°C | 49.7% | 0hPa | 0V | 00:00:00 | 00:00:00 | 00:00:00 | |
| KE7DJD | 2026-09-01 23:36:26 | 43.78173 | -116.07459 | 50° | 97km/h | 10635m | 7.1m/s | -49.3°C | 42.6% | 0hPa | 0V | 00:00:00 | 00:00:00 | 00:00:00 | |
| KE7DJD | 2026-09-01 23:36:05 | 43.77840 | -116.07958 | 46° | 100km/h | 10531m | 6.3m/s | -48.4°C | 48.3% | 0hPa | 0V | 00:00:00 | 00:00:00 | 00:00:00 | |
| KE7DJD | 2026-09-01 23:35:45 | 43.77522 | -116.08474 | 51° | 95km/h | 10429m | 5.3m/s | -47.5°C | 45.1% | 0hPa | 0V | 00:00:00 | 00:00:00 | 00:00:00 | |
| KE7DJD | 2026-09-01 23:35:25 | 43.77212 | -116.09031 | 61° | 108km/h | 10321m | 6.6m/s | -46.5°C | 42.2% | 0hPa | 0V | 00:00:00 | 00:00:00 | 00:00:00 | |
| KE7DJD | 2026-09-01 23:35:04 | 43.76910 | -116.09594 | 55° | 86km/h | 10195m | 5.8m/s | -45.5°C | 32.7% | 0hPa | 0V | 00:00:00 | 00:00:00 | 00:00:00 | |
| KE7DJD | 2026-09-01 23:34:43 | 43.76612 | -116.10139 | 46° | 102km/h | 10097m | 3.5m/s | -44.5°C | 32.6% | 0hPa | 0V | 00:00:00 | 00:00:00 | 00:00:00 | |
| KE7DJD | 2026-09-01 23:34:23 | 43.76320 | -116.10686 | 61° | 93km/h | 9954m | 4.3m/s | -43.2°C | 28.7% | 0hPa | 0V | 00:00:00 | 00:00:00 | 00:00:00 | |
| KE7DJD | 2026-09-01 23:34:01 | 43.76048 | -116.11207 | 53° | 84km/h | 9852m | 4.8m/s | -42.3°C | 29.1% | 0hPa | 0V | 00:00:00 | 00:00:00 | 00:00:00 | |
| KE7DJD | 2026-09-01 23:33:41 | 43.75766 | -116.11728 | 49° | 84km/h | 9763m | 5.3m/s | -41.5°C | 28.5% | 0hPa | 0V | 00:00:00 | 00:00:00 | 00:00:00 | |
| KE7DJD | 2026-09-01 23:33:19 | 43.75523 | -116.12221 | 46° | 75km/h | 9653m | 8.2m/s | -40.8°C | 40.9% | 0hPa | 0V | 00:00:00 | 00:00:00 | 00:00:00 | |
| KE7DJD | 2026-09-01 23:32:58 | 43.75255 | -116.12613 | 40° | 77km/h | 9553m | 4.0m/s | -40.1°C | 41.5% | 0hPa | 0V | 00:00:00 | 00:00:00 | 00:00:00 | |
| KE7DJD | 2026-09-01 23:32:38 | 43.75005 | -116.13000 | 59° | 73km/h | 9469m | 3.9m/s | -39.3°C | 36.9% | 0hPa | 0V | 00:00:00 | 00:00:00 | 00:00:00 | |
| KE7DJD | 2026-09-01 23:32:17 | 43.74769 | -116.13401 | 55° | 71km/h | 9384m | 3.5m/s | -38.6°C | 35.1% | 0hPa | 0V | 00:00:00 | 00:00:00 | 00:00:00 | |
| KE7DJD | 2026-09-01 23:31:57 | 43.74539 | -116.13766 | 49° | 71km/h | 9305m | 4.5m/s | -38.0°C | 44.0% | 0hPa | 0V | 00:00:00 | 00:00:00 | 00:00:00 | |
| KE7DJD | 2026-09-01 23:31:35 | 43.74280 | -116.14162 | 45° | 69km/h | 9224m | 2.8m/s | -37.6°C | 29.4% | 0hPa | 0V | 00:00:00 | 00:00:00 | 00:00:00 | |
| KE7DJD | 2026-09-01 23:31:14 | 43.74051 | -116.14523 | 52° | 75km/h | 9142m | 4.2m/s | -36.9°C | 25.7% | 0hPa | 0V | 00:00:00 | 00:00:00 | 00:00:00 | |
| KE7DJD | 2026-09-01 23:30:53 | 43.73816 | -116.14878 | 53° | 58km/h | 9059m | 3.2m/s | -36.3°C | 22.6% | 0hPa | 0V | 00:00:00 | 00:00:00 | 00:00:00 | |
| KE7DJD | 2026-09-01 23:30:33 | 43.73588 | -116.15176 | 40° | 66km/h | 8973m | 3.6m/s | -35.5°C | 19.9% | 0hPa | 0V | 00:00:00 | 00:00:00 | 00:00:00 | |
| KE7DJD | 2026-09-01 23:30:13 | 43.73393 | -116.15465 | 44° | 58km/h | 8881m | 5.5m/s | -34.9°C | 18.7% | 0hPa | 0V | 00:00:00 | 00:00:00 | 00:00:00 | |
| KE7DJD | 2026-09-01 23:29:52 | 43.73188 | -116.15741 | 44° | 58km/h | 8791m | 2.7m/s | -34.0°C | 19.0% | 0hPa | 0V | 00:00:00 | 00:00:00 | 00:00:00 | |
| KE7DJD | 2026-09-01 23:29:31 | 43.72978 | -116.16039 | 47° | 62km/h | 8704m | 3.8m/s | -33.4°C | 20.7% | 0hPa | 0V | 00:00:00 | 00:00:00 | 00:00:00 | |
| KE7DJD | 2026-09-01 23:29:11 | 43.72777 | -116.16344 | 45° | 51km/h | 8629m | 5.2m/s | -32.9°C | 18.6% | 0hPa | 0V | 00:00:00 | 00:00:00 | 00:00:00 | |
| KE7DJD | 2026-09-01 23:28:50 | 43.72576 | -116.16622 | 41° | 37km/h | 8516m | 6.1m/s | -31.9°C | 15.7% | 0hPa | 0V | 00:00:00 | 00:00:00 | 00:00:00 | |
| KE7DJD | 2026-09-01 23:28:30 | 43.72367 | -116.16863 | 54° | 44km/h | 8397m | 4.9m/s | -30.9°C | 10.4% | 0hPa | 0V | 00:00:00 | 00:00:00 | 00:00:00 | |
| KE7DJD | 2026-09-01 23:28:09 | 43.72160 | -116.17108 | 39° | 44km/h | 8295m | 3.4m/s | -30.1°C | 8.3% | 0hPa | 0V | 00:00:00 | 00:00:00 | 00:00:00 | |
| KE7DJD | 2026-09-01 23:27:48 | 43.71956 | -116.17303 | 30° | 47km/h | 8212m | 3.5m/s | -29.3°C | 7.7% | 0hPa | 0V | 00:00:00 | 00:00:00 | 00:00:00 | |
| KE7DJD | 2026-09-01 23:27:28 | 43.71754 | -116.17458 | 21° | 53km/h | 8124m | 4.4m/s | -29.3°C | 13.4% | 0hPa | 0V | 00:00:00 | 00:00:00 | 00:00:00 | |
| KE7DJD | 2026-09-01 23:26:46 | 43.71250 | -116.17743 | 21° | 55km/h | 7958m | 4.1m/s | -27.7°C | 11.1% | 0hPa | 0V | 00:00:00 | 00:00:00 | 00:00:00 | |
| KE7DJD | 2026-09-01 23:26:24 | 43.70973 | -116.17884 | 24° | 57km/h | 7877m | 4.4m/s | -27.0°C | 8.2% | 0hPa | 0V | 00:00:00 | 00:00:00 | 00:00:00 | |
| KE7DJD | 2026-09-01 23:26:03 | 43.70714 | -116.18029 | 19° | 58km/h | 7798m | 3.3m/s | -26.9°C | 9.5% | 0hPa | 0V | 00:00:00 | 00:00:00 | 00:00:00 | |
| KE7DJD | 2026-09-01 23:25:42 | 43.70445 | -116.18199 | 25° | 53km/h | 7721m | 4.2m/s | -26.5°C | 15.4% | 0hPa | 0V | 00:00:00 | 00:00:00 | 00:00:00 | |
| KE7DJD | 2026-09-01 23:25:22 | 43.70183 | -116.18386 | 26° | 64km/h | 7646m | 4.0m/s | -25.8°C | 11.0% | 0hPa | 0V | 00:00:00 | 00:00:00 | 00:00:00 | |
| KE7DJD | 2026-09-01 23:25:02 | 43.69896 | -116.18584 | 31° | 69km/h | 7573m | 3.8m/s | -25.4°C | 8.0% | 0hPa | 0V | 00:00:00 | 00:00:00 | 00:00:00 | |
| KE7DJD | 2026-09-01 23:24:40 | 43.69610 | -116.18793 | 30° | 58km/h | 7496m | 4.4m/s | -25.0°C | 9.4% | 0hPa | 0V | 00:00:00 | 00:00:00 | 00:00:00 | |
| KE7DJD | 2026-09-01 23:24:20 | 43.69376 | -116.18952 | 38° | 49km/h | 7411m | 5.5m/s | -24.5°C | 17.4% | 0hPa | 0V | 00:00:00 | 00:00:00 | 00:00:00 | |
| KE7DJD | 2026-09-01 23:23:59 | 43.69135 | -116.19060 | 17° | 49km/h | 7315m | 3.3m/s | -23.7°C | 21.0% | 0hPa | 0V | 00:00:00 | 00:00:00 | 00:00:00 | |
| KE7DJD | 2026-09-01 23:23:38 | 43.68879 | -116.19166 | 21° | 51km/h | 7237m | 3.1m/s | -23.1°C | 18.2% | 0hPa | 0V | 00:00:00 | 00:00:00 | 00:00:00 | |
| KE7DJD | 2026-09-01 23:23:18 | 43.68631 | -116.19266 | 17° | 51km/h | 7168m | 3.2m/s | -22.5°C | 14.2% | 0hPa | 0V | 00:00:00 | 00:00:00 | 00:00:00 | |
| KE7DJD | 2026-09-01 23:22:57 | 43.68352 | -116.19370 | 357° | 57km/h | 7089m | 3.5m/s | -22.0°C | 9.4% | 0hPa | 0V | 00:00:00 | 00:00:00 | 00:00:00 | |
| KE7DJD | 2026-09-01 23:22:36 | 43.68076 | -116.19396 | 13° | 57km/h | 6988m | 3.9m/s | -21.6°C | 10.5% | 0hPa | 0V | 00:00:00 | 00:00:00 | 00:00:00 | |
| KE7DJD | 2026-09-01 23:22:15 | 43.67794 | -116.19441 | 6° | 55km/h | 6915m | 5.1m/s | -21.2°C | 11.2% | 0hPa | 0V | 00:00:00 | 00:00:00 | 00:00:00 | |
| KE7DJD | 2026-09-01 23:21:55 | 43.67510 | -116.19495 | 9° | 58km/h | 6841m | 3.5m/s | -20.7°C | 12.6% | 0hPa | 0V | 00:00:00 | 00:00:00 | 00:00:00 | |
| KE7DJD | 2026-09-01 23:21:34 | 43.67229 | -116.19574 | 14° | 60km/h | 6765m | 2.3m/s | -20.1°C | 12.1% | 0hPa | 0V | 00:00:00 | 00:00:00 | 00:00:00 | |
| KE7DJD | 2026-09-01 23:21:13 | 43.66950 | -116.19640 | 15° | 58km/h | 6693m | 3.5m/s | -19.5°C | 13.2% | 0hPa | 0V | 00:00:00 | 00:00:00 | 00:00:00 | |
| KE7DJD | 2026-09-01 23:20:53 | 43.66678 | -116.19682 | 353° | 55km/h | 6586m | 6.9m/s | -18.7°C | 12.6% | 0hPa | 0V | 00:00:00 | 00:00:00 | 00:00:00 | |
| KE7DJD | 2026-09-01 23:20:33 | 43.66400 | -116.19711 | 12° | 51km/h | 6493m | 5.2m/s | -17.8°C | 12.4% | 0hPa | 0V | 00:00:00 | 00:00:00 | 00:00:00 | |
| KE7DJD | 2026-09-01 23:20:11 | 43.66108 | -116.19740 | 12° | 55km/h | 6396m | 4.5m/s | -17.5°C | 16.7% | 0hPa | 0V | 00:00:00 | 00:00:00 | 00:00:00 | |
| KE7DJD | 2026-09-01 23:19:51 | 43.65811 | -116.19811 | 14° | 69km/h | 6304m | 4.6m/s | -17.2°C | 28.8% | 0hPa | 0V | 00:00:00 | 00:00:00 | 00:00:00 | |
| KE7DJD | 2026-09-01 23:19:30 | 43.65492 | -116.19907 | 25° | 60km/h | 6211m | 4.3m/s | -16.7°C | 46.8% | 0hPa | 0V | 00:00:00 | 00:00:00 | 00:00:00 | |
| KE7DJD | 2026-09-01 23:19:09 | 43.65188 | -116.19984 | 10° | 66km/h | 6082m | 3.9m/s | -15.8°C | 64.5% | 0hPa | 0V | 00:00:00 | 00:00:00 | 00:00:00 | |
| KE7DJD | 2026-09-01 23:18:48 | 43.64899 | -116.20052 | 2° | 47km/h | 5970m | 8.6m/s | -14.9°C | 65.9% | 0hPa | 0V | 00:00:00 | 00:00:00 | 00:00:00 | |
| KE7DJD | 2026-09-01 23:18:28 | 43.64658 | -116.20085 | 13° | 46km/h | 5857m | 5.9m/s | -14.0°C | 72.4% | 0hPa | 0V | 00:00:00 | 00:00:00 | 00:00:00 | |
| KE7DJD | 2026-09-01 23:18:07 | 43.64410 | -116.20156 | 28° | 35km/h | 5740m | 5.2m/s | -13.1°C | 70.5% | 0hPa | 0V | 00:00:00 | 00:00:00 | 00:00:00 | |
| KE7DJD | 2026-09-01 23:17:46 | 43.64170 | -116.20170 | 10° | 40km/h | 5617m | 5.8m/s | -12.0°C | 66.6% | 0hPa | 0V | 00:00:00 | 00:00:00 | 00:00:00 | |
| KE7DJD | 2026-09-01 23:17:25 | 43.63949 | -116.20207 | 343° | 44km/h | 5511m | 6.7m/s | -11.0°C | 60.1% | 0hPa | 0V | 00:00:00 | 00:00:00 | 00:00:00 | |
| KE7DJD | 2026-09-01 23:17:04 | 43.63753 | -116.20198 | 353° | 47km/h | 5394m | 6.0m/s | -10.2°C | 58.8% | 0hPa | 0V | 00:00:00 | 00:00:00 | 00:00:00 | |
| KE7DJD | 2026-09-01 23:16:43 | 43.63457 | -116.20243 | 15° | 51km/h | 5263m | 7.4m/s | -9.4°C | 62.4% | 0hPa | 0V | 00:00:00 | 00:00:00 | 00:00:00 | |
| KE7DJD | 2026-09-01 23:16:23 | 43.63185 | -116.20256 | 10° | 69km/h | 5139m | 5.9m/s | -8.3°C | 59.6% | 0hPa | 0V | 00:00:00 | 00:00:00 | 00:00:00 | |
| KE7DJD | 2026-09-01 23:16:03 | 43.62866 | -116.20284 | 3° | 51km/h | 5014m | 5.6m/s | -7.1°C | 56.0% | 0hPa | 0V | 00:00:00 | 00:00:00 | 00:00:00 | |
| KE7DJD | 2026-09-01 23:15:41 | 43.62568 | -116.20277 | 9° | 55km/h | 4907m | 6.1m/s | -6.1°C | 52.9% | 0hPa | 0V | 00:00:00 | 00:00:00 | 00:00:00 | |
| KE7DJD | 2026-09-01 23:15:21 | 43.62272 | -116.20301 | 3° | 55km/h | 4810m | 7.5m/s | -5.3°C | 55.3% | 0hPa | 0V | 00:00:00 | 00:00:00 | 00:00:00 | |
| KE7DJD | 2026-09-01 23:15:01 | 43.61957 | -116.20331 | 12° | 68km/h | 4705m | 5.8m/s | -4.4°C | 55.7% | 0hPa | 0V | 00:00:00 | 00:00:00 | 00:00:00 | |
| KE7DJD | 2026-09-01 23:14:41 | 43.61639 | -116.20409 | 2° | 55km/h | 4586m | 5.7m/s | -3.4°C | 53.4% | 0hPa | 0V | 00:00:00 | 00:00:00 | 00:00:00 | |
| KE7DJD | 2026-09-01 23:14:19 | 43.61308 | -116.20463 | 15° | 62km/h | 4474m | 6.6m/s | -2.9°C | 59.3% | 0hPa | 0V | 00:00:00 | 00:00:00 | 00:00:00 | |
| KE7DJD | 2026-09-01 23:13:37 | 43.60717 | -116.20574 | 10° | 60km/h | 4254m | 6.3m/s | -1.3°C | 61.2% | 0hPa | 0V | 00:00:00 | 00:00:00 | 00:00:00 | |
| KE7DJD | 2026-09-01 23:13:16 | 43.60431 | -116.20578 | 4° | 46km/h | 4132m | 5.9m/s | -0.4°C | 60.5% | 0hPa | 0V | 00:00:00 | 00:00:00 | 00:00:00 | |
| KE7DJD | 2026-09-01 23:12:55 | 43.60196 | -116.20630 | 27° | 40km/h | 4018m | 3.7m/s | 0.6°C | 59.3% | 0hPa | 0V | 00:00:00 | 00:00:00 | 00:00:00 | |
| KE7DJD | 2026-09-01 23:12:35 | 43.59977 | -116.20652 | 10° | 58km/h | 3902m | 4.5m/s | 1.5°C | 58.7% | 0hPa | 0V | 00:00:00 | 00:00:00 | 00:00:00 | |
| KE7DJD | 2026-09-01 23:12:13 | 43.59717 | -116.20703 | 344° | 38km/h | 3787m | 6.2m/s | 2.6°C | 54.8% | 0hPa | 0V | 00:00:00 | 00:00:00 | 00:00:00 | |
| KE7DJD | 2026-09-01 23:11:52 | 43.59495 | -116.20746 | 23° | 55km/h | 3667m | 6.5m/s | 3.8°C | 51.7% | 0hPa | 0V | 00:00:00 | 00:00:00 | 00:00:00 | |
| KE7DJD | 2026-09-01 23:11:32 | 43.59272 | -116.20762 | 348° | 53km/h | 3560m | 7.0m/s | 4.8°C | 49.8% | 0hPa | 0V | 00:00:00 | 00:00:00 | 00:00:00 | |
| KE7DJD | 2026-09-01 23:11:12 | 43.59061 | -116.20801 | 355° | 44km/h | 3451m | 5.5m/s | 5.8°C | 48.3% | 0hPa | 0V | 00:00:00 | 00:00:00 | 00:00:00 | |
| KE7DJD | 2026-09-01 23:10:51 | 43.58830 | -116.20790 | 15° | 49km/h | 3342m | 6.8m/s | 6.7°C | 47.5% | 0hPa | 0V | 00:00:00 | 00:00:00 | 00:00:00 | |
| KE7DJD | 2026-09-01 23:10:30 | 43.58638 | -116.20794 | 353° | 27km/h | 3227m | 5.1m/s | 7.7°C | 49.5% | 0hPa | 0V | 00:00:00 | 00:00:00 | 00:00:00 | |
| KE7DJD | 2026-09-01 23:10:09 | 43.58430 | -116.20766 | 355° | 27km/h | 3122m | 5.1m/s | 8.7°C | 47.1% | 0hPa | 0V | 00:00:00 | 00:00:00 | 00:00:00 | |
| KE7DJD | 2026-09-01 23:09:49 | 43.58239 | -116.20685 | 354° | 27km/h | 3003m | 6.4m/s | 9.7°C | 48.3% | 0hPa | 0V | 00:00:00 | 00:00:00 | 00:00:00 | |
| KE7DJD | 2026-09-01 23:09:27 | 43.58051 | -116.20663 | 346° | 49km/h | 2887m | 5.2m/s | 10.8°C | 45.8% | 0hPa | 0V | 00:00:00 | 00:00:00 | 00:00:00 | |
| KE7DJD | 2026-09-01 23:09:07 | 43.57861 | -116.20586 | 358° | 35km/h | 2777m | 7.1m/s | 11.8°C | 43.4% | 0hPa | 0V | 00:00:00 | 00:00:00 | 00:00:00 | |
| KE7DJD | 2026-09-01 23:08:47 | 43.57707 | -116.20555 | 342° | 42km/h | 2641m | 6.5m/s | 13.1°C | 40.6% | 0hPa | 0V | 00:00:00 | 00:00:00 | 00:00:00 | |
| KE7DJD | 2026-09-01 23:08:26 | 43.57543 | -116.20474 | 319° | 31km/h | 2526m | 4.9m/s | 14.1°C | 38.2% | 0hPa | 0V | 00:00:00 | 00:00:00 | 00:00:00 | |
| KE7DJD | 2026-09-01 23:08:05 | 43.57405 | -116.20367 | 352° | 40km/h | 2408m | 6.5m/s | 15.2°C | 36.1% | 0hPa | 0V | 00:00:00 | 00:00:00 | 00:00:00 | |
| KE7DJD | 2026-09-01 23:07:44 | 43.57270 | -116.20320 | 334° | 37km/h | 2287m | 5.3m/s | 16.3°C | 34.7% | 0hPa | 0V | 00:00:00 | 00:00:00 | 00:00:00 | |
| KE7DJD | 2026-09-01 23:07:23 | 43.57134 | -116.20290 | 337° | 29km/h | 2168m | 5.9m/s | 17.4°C | 32.7% | 0hPa | 0V | 00:00:00 | 00:00:00 | 00:00:00 | |
| KE7DJD | 2026-09-01 23:07:02 | 43.57019 | -116.20292 | 14° | 38km/h | 2048m | 7.5m/s | 18.4°C | 29.5% | 0hPa | 0V | 00:00:00 | 00:00:00 | 00:00:00 | |
| KE7DJD | 2026-09-01 23:06:41 | 43.56890 | -116.20312 | 11° | 27km/h | 1928m | 5.7m/s | 19.4°C | 28.2% | 0hPa | 0V | 00:00:00 | 00:00:00 | 00:00:00 | |
| KE7DJD | 2026-09-01 23:06:20 | 43.56751 | -116.20339 | 346° | 24km/h | 1810m | 7.0m/s | 20.5°C | 26.8% | 0hPa | 0V | 00:00:00 | 00:00:00 | 00:00:00 |